sensor_id;sensor_type;location;lat;lon;timestamp;temperature;humidity
19192;DHT22;9728;48.194;16.346;2023-03-01T00:04:11;11.20;54.90
19192;DHT22;9728;48.194;16.346;2023-03-01T00:09:15;11.10;54.90
19192;DHT22;9728;48.194;16.346;2023-03-01T00:14:19;11.10;55.00
19192;DHT22;9728;48.194;16.346;2023-03-01T00:19:27;11.10;55.00
19192;DHT22;9728;48.194;16.346;2023-03-01T00:24:33;11.00;55.00
19192;DHT22;9728;48.194;16.346;2023-03-01T00:29:37;11.00;55.00
19192;DHT22;9728;48.194;16.346;2023-03-01T00:34:42;11.00;55.10
19192;DHT22;9728;48.194;16.346;2023-03-01T00:39:56;11.00;55.20
19192;DHT22;9728;48.194;16.346;2023-03-01T00:45:00;10.90;55.10
19192;DHT22;9728;48.194;16.346;2023-03-01T00:50:05;10.90;55.10
19192;DHT22;9728;48.194;16.346;2023-03-01T00:55:10;10.90;55.10
19192;DHT22;9728;48.194;16.346;2023-03-01T01:00:15;10.90;55.20
19192;DHT22;9728;48.194;16.346;2023-03-01T01:05:20;10.80;55.20
19192;DHT22;9728;48.194;16.346;2023-03-01T01:10:24;10.80;55.30
19192;DHT22;9728;48.194;16.346;2023-03-01T01:15:27;10.80;55.20
19192;DHT22;9728;48.194;16.346;2023-03-01T01:20:32;10.80;55.30
19192;DHT22;9728;48.194;16.346;2023-03-01T01:25:38;10.80;55.30
19192;DHT22;9728;48.194;16.346;2023-03-01T01:30:42;10.70;55.40
19192;DHT22;9728;48.194;16.346;2023-03-01T01:35:49;10.70;55.50
19192;DHT22;9728;48.194;16.346;2023-03-01T01:40:52;10.70;55.40
19192;DHT22;9728;48.194;16.346;2023-03-01T01:45:58;10.70;55.50
19192;DHT22;9728;48.194;16.346;2023-03-01T01:51:04;10.60;55.50
19192;DHT22;9728;48.194;16.346;2023-03-01T01:56:11;10.60;55.50
19192;DHT22;9728;48.194;16.346;2023-03-01T02:01:16;10.60;55.50
19192;DHT22;9728;48.194;16.346;2023-03-01T02:06:26;10.60;55.60
19192;DHT22;9728;48.194;16.346;2023-03-01T02:11:32;10.60;55.70
19192;DHT22;9728;48.194;16.346;2023-03-01T02:16:36;10.50;55.60
19192;DHT22;9728;48.194;16.346;2023-03-01T02:21:49;10.50;55.60
19192;DHT22;9728;48.194;16.346;2023-03-01T02:26:58;10.50;55.90
19192;DHT22;9728;48.194;16.346;2023-03-01T02:32:05;10.50;55.90
19192;DHT22;9728;48.194;16.346;2023-03-01T02:37:11;10.50;55.90
19192;DHT22;9728;48.194;16.346;2023-03-01T02:42:21;10.50;55.80
19192;DHT22;9728;48.194;16.346;2023-03-01T02:47:30;10.50;56.00
19192;DHT22;9728;48.194;16.346;2023-03-01T02:52:40;10.60;56.00
19192;DHT22;9728;48.194;16.346;2023-03-01T02:57:48;10.60;56.10
19192;DHT22;9728;48.194;16.346;2023-03-01T03:02:55;10.50;56.00
19192;DHT22;9728;48.194;16.346;2023-03-01T03:08:03;10.60;56.10
19192;DHT22;9728;48.194;16.346;2023-03-01T03:13:12;10.50;56.10
19192;DHT22;9728;48.194;16.346;2023-03-01T03:18:18;10.60;56.10
19192;DHT22;9728;48.194;16.346;2023-03-01T03:23:22;10.60;56.10
19192;DHT22;9728;48.194;16.346;2023-03-01T03:28:26;10.50;56.10
19192;DHT22;9728;48.194;16.346;2023-03-01T03:33:31;10.60;56.10
19192;DHT22;9728;48.194;16.346;2023-03-01T03:38:34;10.60;56.10
19192;DHT22;9728;48.194;16.346;2023-03-01T03:43:41;10.60;56.10
19192;DHT22;9728;48.194;16.346;2023-03-01T03:48:47;10.60;56.20
19192;DHT22;9728;48.194;16.346;2023-03-01T03:53:56;10.50;56.10
19192;DHT22;9728;48.194;16.346;2023-03-01T03:59:08;10.50;56.20
19192;DHT22;9728;48.194;16.346;2023-03-01T04:04:15;10.50;56.20
19192;DHT22;9728;48.194;16.346;2023-03-01T04:09:20;10.50;56.20
19192;DHT22;9728;48.194;16.346;2023-03-01T04:14:24;10.50;56.20
19192;DHT22;9728;48.194;16.346;2023-03-01T04:19:29;10.50;56.90
19192;DHT22;9728;48.194;16.346;2023-03-01T04:24:38;10.50;56.20
19192;DHT22;9728;48.194;16.346;2023-03-01T04:29:41;10.40;56.20
19192;DHT22;9728;48.194;16.346;2023-03-01T04:34:46;10.40;56.30
19192;DHT22;9728;48.194;16.346;2023-03-01T04:39:50;10.40;56.30
19192;DHT22;9728;48.194;16.346;2023-03-01T04:44:53;10.40;56.40
19192;DHT22;9728;48.194;16.346;2023-03-01T04:49:58;10.30;56.30
19192;DHT22;9728;48.194;16.346;2023-03-01T04:55:03;10.30;56.30
19192;DHT22;9728;48.194;16.346;2023-03-01T05:00:11;10.30;56.40
19192;DHT22;9728;48.194;16.346;2023-03-01T05:05:26;10.30;56.50
19192;DHT22;9728;48.194;16.346;2023-03-01T05:10:33;10.40;56.60
19192;DHT22;9728;48.194;16.346;2023-03-01T05:15:37;10.30;56.50
19192;DHT22;9728;48.194;16.346;2023-03-01T05:20:42;10.30;56.50
19192;DHT22;9728;48.194;16.346;2023-03-01T05:25:46;10.30;56.50
19192;DHT22;9728;48.194;16.346;2023-03-01T05:30:54;10.30;56.50
19192;DHT22;9728;48.194;16.346;2023-03-01T05:36:00;10.30;56.70
19192;DHT22;9728;48.194;16.346;2023-03-01T05:41:04;10.30;56.80
19192;DHT22;9728;48.194;16.346;2023-03-01T05:46:08;10.30;56.70
19192;DHT22;9728;48.194;16.346;2023-03-01T05:51:15;10.30;56.80
19192;DHT22;9728;48.194;16.346;2023-03-01T05:56:19;10.30;56.90
19192;DHT22;9728;48.194;16.346;2023-03-01T06:01:24;10.30;56.90
19192;DHT22;9728;48.194;16.346;2023-03-01T06:06:29;10.30;56.90
19192;DHT22;9728;48.194;16.346;2023-03-01T06:11:36;10.30;57.00
19192;DHT22;9728;48.194;16.346;2023-03-01T06:16:40;10.30;57.00
19192;DHT22;9728;48.194;16.346;2023-03-01T06:21:45;10.30;56.90
19192;DHT22;9728;48.194;16.346;2023-03-01T06:26:52;10.40;57.00
19192;DHT22;9728;48.194;16.346;2023-03-01T06:31:58;10.40;57.00
19192;DHT22;9728;48.194;16.346;2023-03-01T06:37:12;10.40;57.00
19192;DHT22;9728;48.194;16.346;2023-03-01T06:42:19;10.40;57.10
19192;DHT22;9728;48.194;16.346;2023-03-01T06:47:23;10.40;57.10
19192;DHT22;9728;48.194;16.346;2023-03-01T06:52:31;10.50;57.30
19192;DHT22;9728;48.194;16.346;2023-03-01T06:57:34;10.50;57.30
19192;DHT22;9728;48.194;16.346;2023-03-01T07:02:38;10.50;57.30
19192;DHT22;9728;48.194;16.346;2023-03-01T07:07:43;10.50;57.20
19192;DHT22;9728;48.194;16.346;2023-03-01T07:12:47;10.60;57.30
19192;DHT22;9728;48.194;16.346;2023-03-01T07:17:50;10.60;57.30
19192;DHT22;9728;48.194;16.346;2023-03-01T07:22:55;10.60;57.20
19192;DHT22;9728;48.194;16.346;2023-03-01T07:28:00;10.60;57.30
19192;DHT22;9728;48.194;16.346;2023-03-01T07:33:04;10.70;57.30
19192;DHT22;9728;48.194;16.346;2023-03-01T07:38:09;10.70;57.30
19192;DHT22;9728;48.194;16.346;2023-03-01T07:43:12;10.70;57.30
19192;DHT22;9728;48.194;16.346;2023-03-01T07:48:16;10.80;57.20
19192;DHT22;9728;48.194;16.346;2023-03-01T07:53:21;10.80;57.90
19192;DHT22;9728;48.194;16.346;2023-03-01T07:58:24;10.80;57.20
19192;DHT22;9728;48.194;16.346;2023-03-01T08:03:28;10.80;57.20
19192;DHT22;9728;48.194;16.346;2023-03-01T08:08:34;10.90;57.30
19192;DHT22;9728;48.194;16.346;2023-03-01T08:13:37;10.90;57.30
19192;DHT22;9728;48.194;16.346;2023-03-01T08:18:42;11.00;57.20
19192;DHT22;9728;48.194;16.346;2023-03-01T08:23:47;11.00;57.30
19192;DHT22;9728;48.194;16.346;2023-03-01T08:28:53;11.10;57.30
19192;DHT22;9728;48.194;16.346;2023-03-01T08:34:00;11.10;57.30
19192;DHT22;9728;48.194;16.346;2023-03-01T08:39:05;11.20;57.40
19192;DHT22;9728;48.194;16.346;2023-03-01T08:44:10;11.20;57.50
19192;DHT22;9728;48.194;16.346;2023-03-01T08:49:16;11.30;57.50
19192;DHT22;9728;48.194;16.346;2023-03-01T08:54:22;11.40;57.50
19192;DHT22;9728;48.194;16.346;2023-03-01T08:59:25;11.50;57.60
19192;DHT22;9728;48.194;16.346;2023-03-01T09:04:31;11.60;57.60
19192;DHT22;9728;48.194;16.346;2023-03-01T09:09:37;11.70;57.60
19192;DHT22;9728;48.194;16.346;2023-03-01T09:14:40;11.80;57.60
19192;DHT22;9728;48.194;16.346;2023-03-01T09:19:44;11.90;57.60
19192;DHT22;9728;48.194;16.346;2023-03-01T09:24:49;12.10;57.60
19192;DHT22;9728;48.194;16.346;2023-03-01T09:29:52;12.20;57.60
19192;DHT22;9728;48.194;16.346;2023-03-01T09:34:58;12.30;57.50
19192;DHT22;9728;48.194;16.346;2023-03-01T09:40:13;12.40;57.40
19192;DHT22;9728;48.194;16.346;2023-03-01T09:45:26;12.50;57.40
19192;DHT22;9728;48.194;16.346;2023-03-01T09:50:35;12.60;57.40
19192;DHT22;9728;48.194;16.346;2023-03-01T09:55:43;12.70;57.20
19192;DHT22;9728;48.194;16.346;2023-03-01T10:00:49;12.90;57.10
19192;DHT22;9728;48.194;16.346;2023-03-01T10:06:06;13.00;57.00
19192;DHT22;9728;48.194;16.346;2023-03-01T10:11:21;13.10;56.70
19192;DHT22;9728;48.194;16.346;2023-03-01T10:16:42;13.10;56.70
19192;DHT22;9728;48.194;16.346;2023-03-01T10:21:51;13.20;56.60
19192;DHT22;9728;48.194;16.346;2023-03-01T10:26:57;13.30;56.70
19192;DHT22;9728;48.194;16.346;2023-03-01T10:32:04;13.40;56.60
19192;DHT22;9728;48.194;16.346;2023-03-01T10:37:12;13.40;56.60
19192;DHT22;9728;48.194;16.346;2023-03-01T10:42:25;13.50;56.50
19192;DHT22;9728;48.194;16.346;2023-03-01T10:47:29;13.60;56.60
19192;DHT22;9728;48.194;16.346;2023-03-01T10:52:35;13.80;56.70
19192;DHT22;9728;48.194;16.346;2023-03-01T10:57:40;14.00;56.70
19192;DHT22;9728;48.194;16.346;2023-03-01T11:02:47;14.10;56.60
19192;DHT22;9728;48.194;16.346;2023-03-01T11:07:51;14.20;56.40
19192;DHT22;9728;48.194;16.346;2023-03-01T11:13:08;14.40;56.50
19192;DHT22;9728;48.194;16.346;2023-03-01T11:18:20;14.50;56.00
19192;DHT22;9728;48.194;16.346;2023-03-01T11:23:39;14.60;55.90
19192;DHT22;9728;48.194;16.346;2023-03-01T11:28:48;14.70;55.80
19192;DHT22;9728;48.194;16.346;2023-03-01T11:33:55;14.80;55.60
19192;DHT22;9728;48.194;16.346;2023-03-01T11:39:05;14.80;55.70
19192;DHT22;9728;48.194;16.346;2023-03-01T11:44:21;14.90;55.70
19192;DHT22;9728;48.194;16.346;2023-03-01T11:49:39;15.00;55.50
19192;DHT22;9728;48.194;16.346;2023-03-01T11:54:55;15.00;55.20
19192;DHT22;9728;48.194;16.346;2023-03-01T12:00:11;15.10;55.10
19192;DHT22;9728;48.194;16.346;2023-03-01T12:05:42;15.20;55.10
19192;DHT22;9728;48.194;16.346;2023-03-01T12:10:55;15.20;55.20
19192;DHT22;9728;48.194;16.346;2023-03-01T12:16:34;15.20;55.30
19192;DHT22;9728;48.194;16.346;2023-03-01T12:21:50;15.20;55.00
19192;DHT22;9728;48.194;16.346;2023-03-01T12:27:11;15.30;55.20
19192;DHT22;9728;48.194;16.346;2023-03-01T12:32:40;15.30;55.00
19192;DHT22;9728;48.194;16.346;2023-03-01T12:37:54;15.30;55.00
19192;DHT22;9728;48.194;16.346;2023-03-01T12:43:11;15.40;55.10
19192;DHT22;9728;48.194;16.346;2023-03-01T12:48:34;15.40;55.00
19192;DHT22;9728;48.194;16.346;2023-03-01T12:53:46;15.40;54.90
19192;DHT22;9728;48.194;16.346;2023-03-01T12:58:56;15.40;55.20
19192;DHT22;9728;48.194;16.346;2023-03-01T13:04:15;15.50;55.20
19192;DHT22;9728;48.194;16.346;2023-03-01T13:09:24;15.60;55.10
19192;DHT22;9728;48.194;16.346;2023-03-01T13:14:45;15.60;55.20
19192;DHT22;9728;48.194;16.346;2023-03-01T13:19:58;15.60;55.00
19192;DHT22;9728;48.194;16.346;2023-03-01T13:25:12;15.70;55.10
19192;DHT22;9728;48.194;16.346;2023-03-01T13:30:41;15.70;55.00
19192;DHT22;9728;48.194;16.346;2023-03-01T13:35:46;15.70;55.00
19192;DHT22;9728;48.194;16.346;2023-03-01T13:41:00;15.80;55.30
19192;DHT22;9728;48.194;16.346;2023-03-01T13:46:14;15.80;55.10
19192;DHT22;9728;48.194;16.346;2023-03-01T13:51:24;15.80;55.10
19192;DHT22;9728;48.194;16.346;2023-03-01T13:56:35;15.90;55.00
19192;DHT22;9728;48.194;16.346;2023-03-01T14:01:39;15.90;55.20
19192;DHT22;9728;48.194;16.346;2023-03-01T14:06:46;15.90;55.20
19192;DHT22;9728;48.194;16.346;2023-03-01T14:12:05;15.90;55.10
19192;DHT22;9728;48.194;16.346;2023-03-01T14:17:40;15.90;54.90
19192;DHT22;9728;48.194;16.346;2023-03-01T14:22:48;15.90;54.90
19192;DHT22;9728;48.194;16.346;2023-03-01T14:28:03;15.90;55.10
19192;DHT22;9728;48.194;16.346;2023-03-01T14:33:19;15.80;54.90
19192;DHT22;9728;48.194;16.346;2023-03-01T14:38:30;15.80;54.90
19192;DHT22;9728;48.194;16.346;2023-03-01T14:43:37;15.80;55.00
19192;DHT22;9728;48.194;16.346;2023-03-01T14:48:42;15.70;55.10
19192;DHT22;9728;48.194;16.346;2023-03-01T14:53:47;15.60;55.20
19192;DHT22;9728;48.194;16.346;2023-03-01T14:58:53;15.60;55.20
19192;DHT22;9728;48.194;16.346;2023-03-01T15:03:57;15.60;55.30
19192;DHT22;9728;48.194;16.346;2023-03-01T15:09:02;15.60;55.30
19192;DHT22;9728;48.194;16.346;2023-03-01T15:14:38;15.60;55.40
19192;DHT22;9728;48.194;16.346;2023-03-01T15:19:53;15.60;55.40
19192;DHT22;9728;48.194;16.346;2023-03-01T15:24:58;15.60;55.30
19192;DHT22;9728;48.194;16.346;2023-03-01T15:30:02;15.60;55.40
19192;DHT22;9728;48.194;16.346;2023-03-01T15:35:38;15.50;55.40
19192;DHT22;9728;48.194;16.346;2023-03-01T15:40:50;15.50;55.30
19192;DHT22;9728;48.194;16.346;2023-03-01T15:45:56;15.50;55.40
19192;DHT22;9728;48.194;16.346;2023-03-01T15:51:01;15.50;55.50
19192;DHT22;9728;48.194;16.346;2023-03-01T15:56:06;15.50;55.50
19192;DHT22;9728;48.194;16.346;2023-03-01T16:01:12;15.50;55.60
19192;DHT22;9728;48.194;16.346;2023-03-01T16:06:16;15.50;55.50
19192;DHT22;9728;48.194;16.346;2023-03-01T16:11:21;15.50;55.50
19192;DHT22;9728;48.194;16.346;2023-03-01T16:16:25;15.50;55.50
19192;DHT22;9728;48.194;16.346;2023-03-01T16:21:29;15.50;55.50
19192;DHT22;9728;48.194;16.346;2023-03-01T16:26:36;15.40;55.40
19192;DHT22;9728;48.194;16.346;2023-03-01T16:31:39;15.40;55.50
19192;DHT22;9728;48.194;16.346;2023-03-01T16:36:44;15.40;55.50
19192;DHT22;9728;48.194;16.346;2023-03-01T16:41:52;15.40;55.50
19192;DHT22;9728;48.194;16.346;2023-03-01T16:46:57;15.40;55.50
19192;DHT22;9728;48.194;16.346;2023-03-01T16:52:01;15.40;55.50
19192;DHT22;9728;48.194;16.346;2023-03-01T16:57:06;15.40;55.50
19192;DHT22;9728;48.194;16.346;2023-03-01T17:02:11;15.40;55.50
19192;DHT22;9728;48.194;16.346;2023-03-01T17:07:15;15.40;55.50
19192;DHT22;9728;48.194;16.346;2023-03-01T17:12:20;15.40;55.50
19192;DHT22;9728;48.194;16.346;2023-03-01T17:17:23;15.40;55.40
19192;DHT22;9728;48.194;16.346;2023-03-01T17:22:27;15.40;55.40
19192;DHT22;9728;48.194;16.346;2023-03-01T17:27:33;15.40;55.40
19192;DHT22;9728;48.194;16.346;2023-03-01T17:32:37;15.40;55.40
19192;DHT22;9728;48.194;16.346;2023-03-01T17:37:41;15.40;55.40
19192;DHT22;9728;48.194;16.346;2023-03-01T17:42:50;15.40;55.50
19192;DHT22;9728;48.194;16.346;2023-03-01T17:47:56;15.40;55.40
19192;DHT22;9728;48.194;16.346;2023-03-01T17:52:59;15.40;55.50
19192;DHT22;9728;48.194;16.346;2023-03-01T17:58:13;15.40;55.50
19192;DHT22;9728;48.194;16.346;2023-03-01T18:03:16;15.40;55.40
19192;DHT22;9728;48.194;16.346;2023-03-01T18:08:26;15.30;55.40
19192;DHT22;9728;48.194;16.346;2023-03-01T18:13:31;15.30;55.40
19192;DHT22;9728;48.194;16.346;2023-03-01T18:18:36;15.30;55.40
19192;DHT22;9728;48.194;16.346;2023-03-01T18:23:41;15.30;55.40
19192;DHT22;9728;48.194;16.346;2023-03-01T18:28:46;15.30;55.40
19192;DHT22;9728;48.194;16.346;2023-03-01T18:33:53;15.30;55.40
19192;DHT22;9728;48.194;16.346;2023-03-01T18:38:58;15.30;55.40
19192;DHT22;9728;48.194;16.346;2023-03-01T18:44:05;15.30;55.40
19192;DHT22;9728;48.194;16.346;2023-03-01T18:49:13;15.30;55.40
19192;DHT22;9728;48.194;16.346;2023-03-01T18:54:19;15.30;55.60
19192;DHT22;9728;48.194;16.346;2023-03-01T18:59:25;15.30;55.40
19192;DHT22;9728;48.194;16.346;2023-03-01T19:04:30;15.30;55.40
19192;DHT22;9728;48.194;16.346;2023-03-01T19:09:34;15.20;55.40
19192;DHT22;9728;48.194;16.346;2023-03-01T19:14:41;15.20;55.40
19192;DHT22;9728;48.194;16.346;2023-03-01T19:19:46;15.20;55.50
19192;DHT22;9728;48.194;16.346;2023-03-01T19:24:53;15.10;55.50
19192;DHT22;9728;48.194;16.346;2023-03-01T19:30:00;15.10;55.50
19192;DHT22;9728;48.194;16.346;2023-03-01T19:35:06;15.10;55.60
19192;DHT22;9728;48.194;16.346;2023-03-01T19:40:12;15.00;55.60
19192;DHT22;9728;48.194;16.346;2023-03-01T19:45:19;15.00;55.60
19192;DHT22;9728;48.194;16.346;2023-03-01T19:50:35;15.00;55.80
19192;DHT22;9728;48.194;16.346;2023-03-01T19:55:41;14.90;55.70
19192;DHT22;9728;48.194;16.346;2023-03-01T20:00:47;14.90;55.80
19192;DHT22;9728;48.194;16.346;2023-03-01T20:06:08;14.90;55.80
19192;DHT22;9728;48.194;16.346;2023-03-01T20:11:20;14.80;55.90
19192;DHT22;9728;48.194;16.346;2023-03-01T20:16:28;14.70;56.50
19192;DHT22;9728;48.194;16.346;2023-03-01T20:21:33;14.70;55.90
19192;DHT22;9728;48.194;16.346;2023-03-01T20:26:38;14.70;55.90
19192;DHT22;9728;48.194;16.346;2023-03-01T20:31:45;14.70;56.10
19192;DHT22;9728;48.194;16.346;2023-03-01T20:36:52;14.60;56.00
19192;DHT22;9728;48.194;16.346;2023-03-01T20:41:57;14.60;56.00
19192;DHT22;9728;48.194;16.346;2023-03-01T20:47:04;14.60;55.90
19192;DHT22;9728;48.194;16.346;2023-03-01T20:52:13;14.50;55.90
19192;DHT22;9728;48.194;16.346;2023-03-01T20:57:18;14.50;55.90
19192;DHT22;9728;48.194;16.346;2023-03-01T21:02:25;14.40;55.90
19192;DHT22;9728;48.194;16.346;2023-03-01T21:07:29;14.40;55.90
19192;DHT22;9728;48.194;16.346;2023-03-01T21:12:33;14.40;55.90
19192;DHT22;9728;48.194;16.346;2023-03-01T21:17:39;14.40;55.90
19192;DHT22;9728;48.194;16.346;2023-03-01T21:22:43;14.30;55.90
19192;DHT22;9728;48.194;16.346;2023-03-01T21:27:47;14.30;56.00
19192;DHT22;9728;48.194;16.346;2023-03-01T21:32:52;14.30;56.00
19192;DHT22;9728;48.194;16.346;2023-03-01T21:37:55;14.30;56.00
19192;DHT22;9728;48.194;16.346;2023-03-01T21:42:59;14.20;56.00
19192;DHT22;9728;48.194;16.346;2023-03-01T21:48:04;14.20;55.90
19192;DHT22;9728;48.194;16.346;2023-03-01T21:53:07;14.20;55.90
19192;DHT22;9728;48.194;16.346;2023-03-01T21:58:11;14.10;55.80
19192;DHT22;9728;48.194;16.346;2023-03-01T22:03:16;14.10;55.90
19192;DHT22;9728;48.194;16.346;2023-03-01T22:08:19;14.10;55.90
19192;DHT22;9728;48.194;16.346;2023-03-01T22:13:23;14.10;55.80
19192;DHT22;9728;48.194;16.346;2023-03-01T22:18:28;14.10;55.80
19192;DHT22;9728;48.194;16.346;2023-03-01T22:23:32;14.00;55.80
19192;DHT22;9728;48.194;16.346;2023-03-01T22:28:35;14.00;55.90
19192;DHT22;9728;48.194;16.346;2023-03-01T22:33:40;13.90;55.80
19192;DHT22;9728;48.194;16.346;2023-03-01T22:38:44;13.90;55.90
19192;DHT22;9728;48.194;16.346;2023-03-01T22:43:47;13.90;55.80
19192;DHT22;9728;48.194;16.346;2023-03-01T22:48:52;13.90;55.90
19192;DHT22;9728;48.194;16.346;2023-03-01T22:53:56;13.80;55.80
19192;DHT22;9728;48.194;16.346;2023-03-01T22:59:02;13.80;55.90
19192;DHT22;9728;48.194;16.346;2023-03-01T23:04:07;13.80;55.90
19192;DHT22;9728;48.194;16.346;2023-03-01T23:09:11;13.70;55.80
19192;DHT22;9728;48.194;16.346;2023-03-01T23:14:15;13.70;55.80
19192;DHT22;9728;48.194;16.346;2023-03-01T23:19:19;13.70;55.80
19192;DHT22;9728;48.194;16.346;2023-03-01T23:24:23;13.60;55.80
19192;DHT22;9728;48.194;16.346;2023-03-01T23:29:33;13.60;55.80
19192;DHT22;9728;48.194;16.346;2023-03-01T23:34:38;13.60;55.90
19192;DHT22;9728;48.194;16.346;2023-03-01T23:39:45;13.60;55.90
19192;DHT22;9728;48.194;16.346;2023-03-01T23:44:49;13.50;55.80
19192;DHT22;9728;48.194;16.346;2023-03-01T23:49:54;13.50;55.90
19192;DHT22;9728;48.194;16.346;2023-03-01T23:54:59;13.50;55.90
